sensor_id;sensor_type;location;lat;lon;timestamp;temperature;humidity
47252;DHT22;32991;51.374;11.586;2023-01-25T00:00:50;0.40;99.90
47252;DHT22;32991;51.374;11.586;2023-01-25T00:03:17;0.50;99.90
47252;DHT22;32991;51.374;11.586;2023-01-25T00:05:43;0.40;99.90
47252;DHT22;32991;51.374;11.586;2023-01-25T00:08:10;0.40;99.90
47252;DHT22;32991;51.374;11.586;2023-01-25T00:10:37;0.40;99.90
47252;DHT22;32991;51.374;11.586;2023-01-25T00:13:03;0.50;99.90
47252;DHT22;32991;51.374;11.586;2023-01-25T00:15:30;0.50;99.90
47252;DHT22;32991;51.374;11.586;2023-01-25T00:17:57;0.40;99.90
47252;DHT22;32991;51.374;11.586;2023-01-25T00:20:24;0.40;99.90
47252;DHT22;32991;51.374;11.586;2023-01-25T00:22:50;0.40;99.90
47252;DHT22;32991;51.374;11.586;2023-01-25T00:25:17;0.40;99.90
47252;DHT22;32991;51.374;11.586;2023-01-25T00:27:44;0.40;99.90
47252;DHT22;32991;51.374;11.586;2023-01-25T00:30:10;0.40;99.90
47252;DHT22;32991;51.374;11.586;2023-01-25T00:32:47;0.40;99.90
47252;DHT22;32991;51.374;11.586;2023-01-25T00:35:15;0.30;99.90
47252;DHT22;32991;51.374;11.586;2023-01-25T00:37:42;0.40;99.90
47252;DHT22;32991;51.374;11.586;2023-01-25T00:40:09;0.40;99.90
47252;DHT22;32991;51.374;11.586;2023-01-25T00:42:37;0.40;99.90
47252;DHT22;32991;51.374;11.586;2023-01-25T00:45:04;0.40;99.90
47252;DHT22;32991;51.374;11.586;2023-01-25T00:47:31;0.30;99.90
47252;DHT22;32991;51.374;11.586;2023-01-25T00:50:02;0.30;99.90
47252;DHT22;32991;51.374;11.586;2023-01-25T00:52:29;0.40;99.90
47252;DHT22;32991;51.374;11.586;2023-01-25T00:54:55;0.40;99.90
47252;DHT22;32991;51.374;11.586;2023-01-25T00:57:22;0.40;99.90
47252;DHT22;32991;51.374;11.586;2023-01-25T00:59:49;0.40;99.90
47252;DHT22;32991;51.374;11.586;2023-01-25T01:02:16;0.40;99.90
47252;DHT22;32991;51.374;11.586;2023-01-25T01:04:43;0.30;99.90
47252;DHT22;32991;51.374;11.586;2023-01-25T01:07:11;0.30;99.90
47252;DHT22;32991;51.374;11.586;2023-01-25T01:09:37;0.30;99.90
47252;DHT22;32991;51.374;11.586;2023-01-25T01:12:04;0.30;99.90
47252;DHT22;32991;51.374;11.586;2023-01-25T01:14:31;0.20;99.90
47252;DHT22;32991;51.374;11.586;2023-01-25T01:16:57;0.20;99.90
47252;DHT22;32991;51.374;11.586;2023-01-25T01:19:24;0.30;99.90
47252;DHT22;32991;51.374;11.586;2023-01-25T01:21:51;0.30;99.90
47252;DHT22;32991;51.374;11.586;2023-01-25T01:24:18;0.30;99.90
47252;DHT22;32991;51.374;11.586;2023-01-25T01:26:45;0.30;99.90
47252;DHT22;32991;51.374;11.586;2023-01-25T01:29:12;0.20;99.90
47252;DHT22;32991;51.374;11.586;2023-01-25T01:31:39;0.20;99.90
47252;DHT22;32991;51.374;11.586;2023-01-25T01:34:12;0.20;99.90
47252;DHT22;32991;51.374;11.586;2023-01-25T01:36:40;0.20;99.90
47252;DHT22;32991;51.374;11.586;2023-01-25T01:39:06;0.20;99.90
47252;DHT22;32991;51.374;11.586;2023-01-25T01:41:33;0.10;99.90
47252;DHT22;32991;51.374;11.586;2023-01-25T01:44:01;0.10;99.90
47252;DHT22;32991;51.374;11.586;2023-01-25T01:46:32;0.20;99.90
47252;DHT22;32991;51.374;11.586;2023-01-25T01:51:33;0.20;99.90
47252;DHT22;32991;51.374;11.586;2023-01-25T01:54:04;0.20;99.90
47252;DHT22;32991;51.374;11.586;2023-01-25T01:56:51;0.20;99.90
47252;DHT22;32991;51.374;11.586;2023-01-25T01:59:20;0.20;99.90
47252;DHT22;32991;51.374;11.586;2023-01-25T02:01:48;0.20;99.90
47252;DHT22;32991;51.374;11.586;2023-01-25T02:04:14;0.10;99.90
47252;DHT22;32991;51.374;11.586;2023-01-25T02:06:49;0.10;99.90
47252;DHT22;32991;51.374;11.586;2023-01-25T02:09:18;0.10;99.90
47252;DHT22;32991;51.374;11.586;2023-01-25T02:11:46;0.10;99.90
47252;DHT22;32991;51.374;11.586;2023-01-25T02:14:13;0.10;99.90
47252;DHT22;32991;51.374;11.586;2023-01-25T02:16:41;0.10;99.90
47252;DHT22;32991;51.374;11.586;2023-01-25T02:19:07;0.10;99.90
47252;DHT22;32991;51.374;11.586;2023-01-25T02:21:39;0.10;99.90
47252;DHT22;32991;51.374;11.586;2023-01-25T02:24:08;0.00;99.90
47252;DHT22;32991;51.374;11.586;2023-01-25T02:26:37;0.00;99.90
47252;DHT22;32991;51.374;11.586;2023-01-25T02:29:05;0.00;99.90
47252;DHT22;32991;51.374;11.586;2023-01-25T02:31:32;0.00;99.90
47252;DHT22;32991;51.374;11.586;2023-01-25T02:33:59;0.00;99.90
47252;DHT22;32991;51.374;11.586;2023-01-25T02:36:27;0.00;99.90
47252;DHT22;32991;51.374;11.586;2023-01-25T02:39:00;0.00;99.90
47252;DHT22;32991;51.374;11.586;2023-01-25T02:43:57;0.00;99.90
47252;DHT22;32991;51.374;11.586;2023-01-25T02:46:32;0.00;99.90
47252;DHT22;32991;51.374;11.586;2023-01-25T02:49:00;0.00;99.90
47252;DHT22;32991;51.374;11.586;2023-01-25T02:51:29;0.10;99.90
47252;DHT22;32991;51.374;11.586;2023-01-25T02:53:56;0.00;99.90
47252;DHT22;32991;51.374;11.586;2023-01-25T02:56:23;0.10;99.90
47252;DHT22;32991;51.374;11.586;2023-01-25T02:58:50;0.00;99.90
47252;DHT22;32991;51.374;11.586;2023-01-25T03:01:18;0.00;99.90
47252;DHT22;32991;51.374;11.586;2023-01-25T03:03:45;0.00;99.90
47252;DHT22;32991;51.374;11.586;2023-01-25T03:06:12;0.00;99.90
47252;DHT22;32991;51.374;11.586;2023-01-25T03:08:42;0.00;99.90
47252;DHT22;32991;51.374;11.586;2023-01-25T03:11:09;0.00;99.90
47252;DHT22;32991;51.374;11.586;2023-01-25T03:13:36;0.00;99.90
47252;DHT22;32991;51.374;11.586;2023-01-25T03:16:08;0.00;99.90
47252;DHT22;32991;51.374;11.586;2023-01-25T03:18:37;0.00;99.90
47252;DHT22;32991;51.374;11.586;2023-01-25T03:21:07;0.00;99.90
47252;DHT22;32991;51.374;11.586;2023-01-25T03:23:35;0.00;99.90
47252;DHT22;32991;51.374;11.586;2023-01-25T03:26:03;0.00;99.90
47252;DHT22;32991;51.374;11.586;2023-01-25T03:28:31;0.00;99.90
47252;DHT22;32991;51.374;11.586;2023-01-25T03:30:58;0.00;99.90
47252;DHT22;32991;51.374;11.586;2023-01-25T03:33:25;0.00;99.90
47252;DHT22;32991;51.374;11.586;2023-01-25T03:35:53;0.00;99.90
47252;DHT22;32991;51.374;11.586;2023-01-25T03:38:20;0.10;99.90
47252;DHT22;32991;51.374;11.586;2023-01-25T03:40:47;0.10;99.90
47252;DHT22;32991;51.374;11.586;2023-01-25T03:43:14;0.10;99.90
47252;DHT22;32991;51.374;11.586;2023-01-25T03:45:41;0.00;99.90
47252;DHT22;32991;51.374;11.586;2023-01-25T03:48:08;0.00;99.90
47252;DHT22;32991;51.374;11.586;2023-01-25T03:50:35;0.10;99.90
47252;DHT22;32991;51.374;11.586;2023-01-25T03:53:02;0.00;99.90
47252;DHT22;32991;51.374;11.586;2023-01-25T03:55:34;0.00;99.90
47252;DHT22;32991;51.374;11.586;2023-01-25T03:58:01;0.00;99.90
47252;DHT22;32991;51.374;11.586;2023-01-25T04:00:27;0.10;99.90
47252;DHT22;32991;51.374;11.586;2023-01-25T04:02:58;0.10;99.90
47252;DHT22;32991;51.374;11.586;2023-01-25T04:05:26;0.10;99.90
47252;DHT22;32991;51.374;11.586;2023-01-25T04:07:54;0.20;99.90
47252;DHT22;32991;51.374;11.586;2023-01-25T04:10:29;0.20;99.90
47252;DHT22;32991;51.374;11.586;2023-01-25T04:12:55;0.10;99.90
47252;DHT22;32991;51.374;11.586;2023-01-25T04:15:22;0.10;99.90
47252;DHT22;32991;51.374;11.586;2023-01-25T04:17:50;0.10;99.90
47252;DHT22;32991;51.374;11.586;2023-01-25T04:20:22;0.10;99.90
47252;DHT22;32991;51.374;11.586;2023-01-25T04:22:49;0.00;99.90
47252;DHT22;32991;51.374;11.586;2023-01-25T04:25:17;0.00;99.90
47252;DHT22;32991;51.374;11.586;2023-01-25T04:27:48;0.00;99.90
47252;DHT22;32991;51.374;11.586;2023-01-25T04:30:16;0.00;99.90
47252;DHT22;32991;51.374;11.586;2023-01-25T04:32:44;0.00;99.90
47252;DHT22;32991;51.374;11.586;2023-01-25T04:35:22;0.00;99.90
47252;DHT22;32991;51.374;11.586;2023-01-25T04:37:55;0.00;99.90
47252;DHT22;32991;51.374;11.586;2023-01-25T04:40:25;0.00;99.90
47252;DHT22;32991;51.374;11.586;2023-01-25T04:42:52;0.00;99.90
47252;DHT22;32991;51.374;11.586;2023-01-25T04:45:18;0.00;99.90
47252;DHT22;32991;51.374;11.586;2023-01-25T04:47:46;-0.10;99.90
47252;DHT22;32991;51.374;11.586;2023-01-25T04:50:13;-0.10;99.90
47252;DHT22;32991;51.374;11.586;2023-01-25T04:52:40;-0.10;99.90
47252;DHT22;32991;51.374;11.586;2023-01-25T04:55:08;-0.10;99.90
47252;DHT22;32991;51.374;11.586;2023-01-25T04:57:40;-0.10;99.90
47252;DHT22;32991;51.374;11.586;2023-01-25T05:00:07;-0.20;99.90
47252;DHT22;32991;51.374;11.586;2023-01-25T05:02:36;-0.20;99.90
47252;DHT22;32991;51.374;11.586;2023-01-25T05:05:03;-0.20;99.90
47252;DHT22;32991;51.374;11.586;2023-01-25T05:07:30;-0.10;99.90
47252;DHT22;32991;51.374;11.586;2023-01-25T05:09:57;-0.10;99.90
47252;DHT22;32991;51.374;11.586;2023-01-25T05:12:25;-0.10;99.90
47252;DHT22;32991;51.374;11.586;2023-01-25T05:14:59;-0.10;99.90
47252;DHT22;32991;51.374;11.586;2023-01-25T05:17:26;-0.10;99.90
47252;DHT22;32991;51.374;11.586;2023-01-25T05:19:53;-0.10;99.90
47252;DHT22;32991;51.374;11.586;2023-01-25T05:22:21;0.00;99.90
47252;DHT22;32991;51.374;11.586;2023-01-25T05:24:51;0.00;99.90
47252;DHT22;32991;51.374;11.586;2023-01-25T05:27:19;0.00;99.90
47252;DHT22;32991;51.374;11.586;2023-01-25T05:29:52;0.10;99.90
47252;DHT22;32991;51.374;11.586;2023-01-25T05:32:22;0.10;99.90
47252;DHT22;32991;51.374;11.586;2023-01-25T05:34:49;0.10;99.90
47252;DHT22;32991;51.374;11.586;2023-01-25T05:37:17;0.00;99.90
47252;DHT22;32991;51.374;11.586;2023-01-25T05:39:46;0.00;99.90
47252;DHT22;32991;51.374;11.586;2023-01-25T05:42:14;0.00;99.90
47252;DHT22;32991;51.374;11.586;2023-01-25T05:44:41;0.00;99.90
47252;DHT22;32991;51.374;11.586;2023-01-25T05:47:13;0.00;99.90
47252;DHT22;32991;51.374;11.586;2023-01-25T05:49:40;-0.10;99.90
47252;DHT22;32991;51.374;11.586;2023-01-25T05:52:12;-0.10;99.90
47252;DHT22;32991;51.374;11.586;2023-01-25T05:54:39;-0.20;99.90
47252;DHT22;32991;51.374;11.586;2023-01-25T05:57:08;-0.20;99.90
47252;DHT22;32991;51.374;11.586;2023-01-25T05:59:35;-0.30;99.90
47252;DHT22;32991;51.374;11.586;2023-01-25T06:02:05;-0.30;99.90
47252;DHT22;32991;51.374;11.586;2023-01-25T06:04:31;-0.30;99.90
47252;DHT22;32991;51.374;11.586;2023-01-25T06:06:59;-0.30;99.90
47252;DHT22;32991;51.374;11.586;2023-01-25T06:09:26;-0.40;99.90
47252;DHT22;32991;51.374;11.586;2023-01-25T06:11:52;-0.30;99.90
47252;DHT22;32991;51.374;11.586;2023-01-25T06:14:20;-0.30;99.90
47252;DHT22;32991;51.374;11.586;2023-01-25T06:16:47;-0.30;99.90
47252;DHT22;32991;51.374;11.586;2023-01-25T06:19:43;-0.30;99.90
47252;DHT22;32991;51.374;11.586;2023-01-25T06:22:36;-0.40;99.90
47252;DHT22;32991;51.374;11.586;2023-01-25T06:25:02;-0.40;99.90
47252;DHT22;32991;51.374;11.586;2023-01-25T06:27:29;-0.40;99.90
47252;DHT22;32991;51.374;11.586;2023-01-25T06:29:56;-0.40;99.90
47252;DHT22;32991;51.374;11.586;2023-01-25T06:32:23;-0.40;99.90
47252;DHT22;32991;51.374;11.586;2023-01-25T06:34:51;-0.30;99.90
47252;DHT22;32991;51.374;11.586;2023-01-25T06:37:20;-0.40;99.90
47252;DHT22;32991;51.374;11.586;2023-01-25T06:39:48;-0.30;99.90
47252;DHT22;32991;51.374;11.586;2023-01-25T06:42:15;-0.30;99.90
47252;DHT22;32991;51.374;11.586;2023-01-25T06:44:42;-0.30;99.90
47252;DHT22;32991;51.374;11.586;2023-01-25T06:47:08;-0.30;99.90
47252;DHT22;32991;51.374;11.586;2023-01-25T06:49:35;-0.30;99.90
47252;DHT22;32991;51.374;11.586;2023-01-25T06:52:02;-0.30;99.90
47252;DHT22;32991;51.374;11.586;2023-01-25T06:54:29;-0.30;99.90
47252;DHT22;32991;51.374;11.586;2023-01-25T06:56:56;-0.20;99.90
47252;DHT22;32991;51.374;11.586;2023-01-25T06:59:22;-0.20;99.90
47252;DHT22;32991;51.374;11.586;2023-01-25T07:01:49;-0.20;99.90
47252;DHT22;32991;51.374;11.586;2023-01-25T07:04:16;-0.20;99.90
47252;DHT22;32991;51.374;11.586;2023-01-25T07:06:43;-0.20;99.90
47252;DHT22;32991;51.374;11.586;2023-01-25T07:09:12;-0.20;99.90
47252;DHT22;32991;51.374;11.586;2023-01-25T07:11:39;-0.20;99.90
47252;DHT22;32991;51.374;11.586;2023-01-25T07:14:05;-0.30;99.90
47252;DHT22;32991;51.374;11.586;2023-01-25T07:16:33;-0.30;99.90
47252;DHT22;32991;51.374;11.586;2023-01-25T07:19:03;-0.30;99.90
47252;DHT22;32991;51.374;11.586;2023-01-25T07:21:30;-0.30;99.90
47252;DHT22;32991;51.374;11.586;2023-01-25T07:24:00;-0.30;99.90
47252;DHT22;32991;51.374;11.586;2023-01-25T07:26:28;-0.30;99.90
47252;DHT22;32991;51.374;11.586;2023-01-25T07:28:55;-0.30;99.90
47252;DHT22;32991;51.374;11.586;2023-01-25T07:31:22;-0.40;99.90
47252;DHT22;32991;51.374;11.586;2023-01-25T07:33:51;-0.40;99.90
47252;DHT22;32991;51.374;11.586;2023-01-25T07:36:18;-0.30;99.90
47252;DHT22;32991;51.374;11.586;2023-01-25T07:38:45;-0.40;99.90
47252;DHT22;32991;51.374;11.586;2023-01-25T07:41:12;-0.40;99.90
47252;DHT22;32991;51.374;11.586;2023-01-25T07:43:40;-0.40;99.90
47252;DHT22;32991;51.374;11.586;2023-01-25T07:46:09;-0.30;99.90
47252;DHT22;32991;51.374;11.586;2023-01-25T07:48:39;-0.30;99.90
47252;DHT22;32991;51.374;11.586;2023-01-25T07:51:07;-0.30;99.90
47252;DHT22;32991;51.374;11.586;2023-01-25T07:53:38;-0.30;99.90
47252;DHT22;32991;51.374;11.586;2023-01-25T07:56:06;-0.30;99.90
47252;DHT22;32991;51.374;11.586;2023-01-25T07:58:33;-0.30;99.90
47252;DHT22;32991;51.374;11.586;2023-01-25T08:01:10;-0.20;99.90
47252;DHT22;32991;51.374;11.586;2023-01-25T08:03:37;-0.20;99.90
47252;DHT22;32991;51.374;11.586;2023-01-25T08:06:03;-0.20;99.90
47252;DHT22;32991;51.374;11.586;2023-01-25T08:08:34;-0.30;99.90
47252;DHT22;32991;51.374;11.586;2023-01-25T08:11:08;-0.30;99.90
47252;DHT22;32991;51.374;11.586;2023-01-25T08:13:36;-0.20;99.90
47252;DHT22;32991;51.374;11.586;2023-01-25T08:16:03;-0.20;99.90
47252;DHT22;32991;51.374;11.586;2023-01-25T08:18:30;-0.20;99.90
47252;DHT22;32991;51.374;11.586;2023-01-25T08:20:57;-0.30;99.90
47252;DHT22;32991;51.374;11.586;2023-01-25T08:23:25;-0.30;99.90
47252;DHT22;32991;51.374;11.586;2023-01-25T08:25:52;-0.30;99.90
47252;DHT22;32991;51.374;11.586;2023-01-25T08:28:18;-0.20;99.90
47252;DHT22;32991;51.374;11.586;2023-01-25T08:30:45;-0.20;99.90
47252;DHT22;32991;51.374;11.586;2023-01-25T08:33:23;-0.20;99.90
47252;DHT22;32991;51.374;11.586;2023-01-25T08:35:53;-0.20;99.90
47252;DHT22;32991;51.374;11.586;2023-01-25T08:38:20;-0.20;99.90
47252;DHT22;32991;51.374;11.586;2023-01-25T08:40:47;-0.20;99.90
47252;DHT22;32991;51.374;11.586;2023-01-25T08:43:14;-0.20;99.90
47252;DHT22;32991;51.374;11.586;2023-01-25T08:45:40;-0.20;99.90
47252;DHT22;32991;51.374;11.586;2023-01-25T08:48:07;-0.20;99.90
47252;DHT22;32991;51.374;11.586;2023-01-25T08:50:34;-0.10;99.90
47252;DHT22;32991;51.374;11.586;2023-01-25T08:53:00;-0.10;99.90
47252;DHT22;32991;51.374;11.586;2023-01-25T08:55:27;-0.10;99.90
47252;DHT22;32991;51.374;11.586;2023-01-25T08:57:54;-0.10;99.90
47252;DHT22;32991;51.374;11.586;2023-01-25T09:00:22;-0.10;99.90
47252;DHT22;32991;51.374;11.586;2023-01-25T09:02:49;0.00;99.90
47252;DHT22;32991;51.374;11.586;2023-01-25T09:05:16;0.00;99.90
47252;DHT22;32991;51.374;11.586;2023-01-25T09:07:42;0.00;99.90
47252;DHT22;32991;51.374;11.586;2023-01-25T09:10:09;0.10;99.90
47252;DHT22;32991;51.374;11.586;2023-01-25T09:12:37;0.00;99.90
47252;DHT22;32991;51.374;11.586;2023-01-25T09:15:04;0.00;99.90
47252;DHT22;32991;51.374;11.586;2023-01-25T09:17:30;0.00;99.90
47252;DHT22;32991;51.374;11.586;2023-01-25T09:19:57;0.00;99.90
47252;DHT22;32991;51.374;11.586;2023-01-25T09:22:24;0.10;99.90
47252;DHT22;32991;51.374;11.586;2023-01-25T09:24:50;0.10;99.90
47252;DHT22;32991;51.374;11.586;2023-01-25T09:27:19;0.10;99.90
47252;DHT22;32991;51.374;11.586;2023-01-25T09:29:46;0.10;99.90
47252;DHT22;32991;51.374;11.586;2023-01-25T09:32:27;0.10;99.90
47252;DHT22;32991;51.374;11.586;2023-01-25T09:34:54;0.20;99.90
47252;DHT22;32991;51.374;11.586;2023-01-25T09:37:21;0.20;99.90
47252;DHT22;32991;51.374;11.586;2023-01-25T09:39:48;0.20;99.90
47252;DHT22;32991;51.374;11.586;2023-01-25T09:42:36;0.30;99.90
47252;DHT22;32991;51.374;11.586;2023-01-25T09:45:26;0.30;99.90
47252;DHT22;32991;51.374;11.586;2023-01-25T09:48:03;0.40;99.90
47252;DHT22;32991;51.374;11.586;2023-01-25T09:50:35;0.40;99.90
47252;DHT22;32991;51.374;11.586;2023-01-25T09:55:51;0.50;99.90
47252;DHT22;32991;51.374;11.586;2023-01-25T09:58:20;0.50;99.90
47252;DHT22;32991;51.374;11.586;2023-01-25T10:00:51;0.50;99.90
47252;DHT22;32991;51.374;11.586;2023-01-25T10:03:21;0.50;99.90
47252;DHT22;32991;51.374;11.586;2023-01-25T10:05:52;0.50;99.90
47252;DHT22;32991;51.374;11.586;2023-01-25T10:10:54;0.50;99.90
47252;DHT22;32991;51.374;11.586;2023-01-25T10:13:22;0.60;99.90
47252;DHT22;32991;51.374;11.586;2023-01-25T10:15:51;0.60;99.90
47252;DHT22;32991;51.374;11.586;2023-01-25T10:20:54;0.60;99.90
47252;DHT22;32991;51.374;11.586;2023-01-25T10:26:11;0.50;99.90
47252;DHT22;32991;51.374;11.586;2023-01-25T10:28:48;0.50;99.90
47252;DHT22;32991;51.374;11.586;2023-01-25T10:31:21;0.50;99.90
47252;DHT22;32991;51.374;11.586;2023-01-25T10:33:53;0.60;99.90
47252;DHT22;32991;51.374;11.586;2023-01-25T10:36:22;0.60;99.90
47252;DHT22;32991;51.374;11.586;2023-01-25T10:38:52;0.60;99.90
47252;DHT22;32991;51.374;11.586;2023-01-25T10:43:54;0.60;99.90
47252;DHT22;32991;51.374;11.586;2023-01-25T10:46:40;0.60;99.90
47252;DHT22;32991;51.374;11.586;2023-01-25T10:49:23;0.60;99.90
47252;DHT22;32991;51.374;11.586;2023-01-25T10:51:50;0.60;99.90
47252;DHT22;32991;51.374;11.586;2023-01-25T10:54:16;0.60;99.90
47252;DHT22;32991;51.374;11.586;2023-01-25T10:56:43;0.70;99.90
47252;DHT22;32991;51.374;11.586;2023-01-25T10:59:19;0.60;99.90
47252;DHT22;32991;51.374;11.586;2023-01-25T11:01:47;0.60;99.90
47252;DHT22;32991;51.374;11.586;2023-01-25T11:04:31;0.70;99.90
47252;DHT22;32991;51.374;11.586;2023-01-25T11:06:58;0.70;99.90
47252;DHT22;32991;51.374;11.586;2023-01-25T11:09:30;0.70;99.90
47252;DHT22;32991;51.374;11.586;2023-01-25T11:12:19;0.70;99.90
47252;DHT22;32991;51.374;11.586;2023-01-25T11:14:47;0.70;99.90
47252;DHT22;32991;51.374;11.586;2023-01-25T11:17:33;0.70;99.90
47252;DHT22;32991;51.374;11.586;2023-01-25T11:20:14;0.70;99.90
47252;DHT22;32991;51.374;11.586;2023-01-25T11:22:47;0.70;99.90
47252;DHT22;32991;51.374;11.586;2023-01-25T11:25:33;0.70;99.90
47252;DHT22;32991;51.374;11.586;2023-01-25T11:28:33;0.70;99.90
47252;DHT22;32991;51.374;11.586;2023-01-25T11:30:52;0.70;99.90
47252;DHT22;32991;51.374;11.586;2023-01-25T11:33:20;0.70;99.90
47252;DHT22;32991;51.374;11.586;2023-01-25T11:38:29;0.70;99.90
47252;DHT22;32991;51.374;11.586;2023-01-25T11:40:59;0.70;99.90
47252;DHT22;32991;51.374;11.586;2023-01-25T11:43:44;0.70;99.90
47252;DHT22;32991;51.374;11.586;2023-01-25T11:54:01;0.60;99.90
47252;DHT22;32991;51.374;11.586;2023-01-25T11:59:21;0.70;99.90
47252;DHT22;32991;51.374;11.586;2023-01-25T12:04:43;0.70;99.90
47252;DHT22;32991;51.374;11.586;2023-01-25T12:10:02;0.70;99.90
47252;DHT22;32991;51.374;11.586;2023-01-25T12:12:49;0.60;99.90
47252;DHT22;32991;51.374;11.586;2023-01-25T12:15:37;0.60;99.90
47252;DHT22;32991;51.374;11.586;2023-01-25T12:21:04;0.70;99.90
47252;DHT22;32991;51.374;11.586;2023-01-25T12:23:44;0.70;99.90
47252;DHT22;32991;51.374;11.586;2023-01-25T12:26:21;0.70;99.90
47252;DHT22;32991;51.374;11.586;2023-01-25T12:28:50;0.70;99.90
47252;DHT22;32991;51.374;11.586;2023-01-25T12:31:24;0.70;99.90
47252;DHT22;32991;51.374;11.586;2023-01-25T12:34:01;0.60;99.90
47252;DHT22;32991;51.374;11.586;2023-01-25T12:36:34;0.60;99.90
47252;DHT22;32991;51.374;11.586;2023-01-25T12:39:02;0.70;99.90
47252;DHT22;32991;51.374;11.586;2023-01-25T12:41:43;0.70;99.90
47252;DHT22;32991;51.374;11.586;2023-01-25T12:44:13;0.60;99.90
47252;DHT22;32991;51.374;11.586;2023-01-25T12:46:54;0.60;99.90
47252;DHT22;32991;51.374;11.586;2023-01-25T12:49:35;0.60;99.90
47252;DHT22;32991;51.374;11.586;2023-01-25T12:52:47;0.60;99.90
47252;DHT22;32991;51.374;11.586;2023-01-25T12:54:54;0.60;99.90
47252;DHT22;32991;51.374;11.586;2023-01-25T12:57:24;0.60;99.90
47252;DHT22;32991;51.374;11.586;2023-01-25T13:00:40;0.60;99.90
47252;DHT22;32991;51.374;11.586;2023-01-25T13:05:14;0.60;99.90
47252;DHT22;32991;51.374;11.586;2023-01-25T13:07:47;0.60;99.90
47252;DHT22;32991;51.374;11.586;2023-01-25T13:10:23;0.50;99.90
47252;DHT22;32991;51.374;11.586;2023-01-25T13:12:57;0.50;99.90
47252;DHT22;32991;51.374;11.586;2023-01-25T13:15:36;0.40;99.90
47252;DHT22;32991;51.374;11.586;2023-01-25T13:20:50;0.30;99.90
47252;DHT22;32991;51.374;11.586;2023-01-25T13:28:41;0.30;99.90
47252;DHT22;32991;51.374;11.586;2023-01-25T13:31:08;0.30;99.90
47252;DHT22;32991;51.374;11.586;2023-01-25T13:33:35;0.30;99.90
47252;DHT22;32991;51.374;11.586;2023-01-25T13:36:32;0.30;99.90
47252;DHT22;32991;51.374;11.586;2023-01-25T13:38:48;0.30;99.90
47252;DHT22;32991;51.374;11.586;2023-01-25T13:41:15;0.30;99.90
47252;DHT22;32991;51.374;11.586;2023-01-25T13:43:43;0.30;99.90
47252;DHT22;32991;51.374;11.586;2023-01-25T13:46:12;0.20;99.90
47252;DHT22;32991;51.374;11.586;2023-01-25T13:48:44;0.30;99.90
47252;DHT22;32991;51.374;11.586;2023-01-25T13:51:12;0.20;99.90
47252;DHT22;32991;51.374;11.586;2023-01-25T13:53:39;0.20;99.90
47252;DHT22;32991;51.374;11.586;2023-01-25T13:56:21;0.20;99.90
47252;DHT22;32991;51.374;11.586;2023-01-25T13:58:49;0.20;99.90
47252;DHT22;32991;51.374;11.586;2023-01-25T14:01:16;0.20;99.90
47252;DHT22;32991;51.374;11.586;2023-01-25T14:03:45;0.20;99.90
47252;DHT22;32991;51.374;11.586;2023-01-25T14:06:14;0.10;99.90
47252;DHT22;32991;51.374;11.586;2023-01-25T14:08:41;0.10;99.90
47252;DHT22;32991;51.374;11.586;2023-01-25T14:11:09;0.10;99.90
47252;DHT22;32991;51.374;11.586;2023-01-25T14:13:36;0.20;99.90
47252;DHT22;32991;51.374;11.586;2023-01-25T14:16:07;0.20;99.90
47252;DHT22;32991;51.374;11.586;2023-01-25T14:18:34;0.30;99.90
47252;DHT22;32991;51.374;11.586;2023-01-25T14:21:17;0.20;99.90
47252;DHT22;32991;51.374;11.586;2023-01-25T14:23:45;0.30;99.90
47252;DHT22;32991;51.374;11.586;2023-01-25T14:26:23;0.30;99.90
47252;DHT22;32991;51.374;11.586;2023-01-25T14:28:59;0.30;99.90
47252;DHT22;32991;51.374;11.586;2023-01-25T14:31:34;0.30;99.90
47252;DHT22;32991;51.374;11.586;2023-01-25T14:34:02;0.30;99.90
47252;DHT22;32991;51.374;11.586;2023-01-25T14:36:31;0.20;99.90
47252;DHT22;32991;51.374;11.586;2023-01-25T14:38:59;0.30;99.90
47252;DHT22;32991;51.374;11.586;2023-01-25T14:41:36;0.20;99.90
47252;DHT22;32991;51.374;11.586;2023-01-25T14:44:11;0.20;99.90
47252;DHT22;32991;51.374;11.586;2023-01-25T14:46:39;0.20;99.90
47252;DHT22;32991;51.374;11.586;2023-01-25T14:51:33;0.10;99.90
47252;DHT22;32991;51.374;11.586;2023-01-25T14:54:09;0.20;99.90
47252;DHT22;32991;51.374;11.586;2023-01-25T14:56:42;0.20;99.90
47252;DHT22;32991;51.374;11.586;2023-01-25T14:59:43;0.20;99.90
47252;DHT22;32991;51.374;11.586;2023-01-25T15:02:15;0.10;99.90
47252;DHT22;32991;51.374;11.586;2023-01-25T15:04:51;0.10;99.90
47252;DHT22;32991;51.374;11.586;2023-01-25T15:07:35;0.20;99.90
47252;DHT22;32991;51.374;11.586;2023-01-25T15:21:25;0.00;99.90
47252;DHT22;32991;51.374;11.586;2023-01-25T15:23:53;0.00;99.90
47252;DHT22;32991;51.374;11.586;2023-01-25T15:26:21;0.00;99.90
47252;DHT22;32991;51.374;11.586;2023-01-25T15:28:49;0.00;99.90
47252;DHT22;32991;51.374;11.586;2023-01-25T15:31:17;-0.10;99.90
47252;DHT22;32991;51.374;11.586;2023-01-25T15:33:44;-0.10;99.90
47252;DHT22;32991;51.374;11.586;2023-01-25T15:36:11;-0.10;99.90
47252;DHT22;32991;51.374;11.586;2023-01-25T15:38:38;-0.10;99.90
47252;DHT22;32991;51.374;11.586;2023-01-25T15:41:05;-0.20;99.90
47252;DHT22;32991;51.374;11.586;2023-01-25T15:43:32;-0.20;99.90
47252;DHT22;32991;51.374;11.586;2023-01-25T15:45:58;-0.20;99.90
47252;DHT22;32991;51.374;11.586;2023-01-25T15:48:33;-0.20;99.90
47252;DHT22;32991;51.374;11.586;2023-01-25T15:51:00;-0.20;99.90
47252;DHT22;32991;51.374;11.586;2023-01-25T15:53:27;-0.20;99.90
47252;DHT22;32991;51.374;11.586;2023-01-25T15:55:56;-0.20;99.90
47252;DHT22;32991;51.374;11.586;2023-01-25T15:58:25;-0.20;99.90
47252;DHT22;32991;51.374;11.586;2023-01-25T16:00:52;-0.20;99.90
47252;DHT22;32991;51.374;11.586;2023-01-25T16:03:19;-0.20;99.90
47252;DHT22;32991;51.374;11.586;2023-01-25T16:05:49;-0.20;99.90
47252;DHT22;32991;51.374;11.586;2023-01-25T16:08:18;-0.20;99.90
47252;DHT22;32991;51.374;11.586;2023-01-25T16:10:46;-0.20;99.90
47252;DHT22;32991;51.374;11.586;2023-01-25T16:13:13;-0.20;99.90
47252;DHT22;32991;51.374;11.586;2023-01-25T16:15:40;-0.20;99.90
47252;DHT22;32991;51.374;11.586;2023-01-25T16:18:13;-0.20;99.90
47252;DHT22;32991;51.374;11.586;2023-01-25T16:20:40;-0.20;99.90
47252;DHT22;32991;51.374;11.586;2023-01-25T16:23:09;-0.20;99.90
47252;DHT22;32991;51.374;11.586;2023-01-25T16:25:38;-0.20;99.90
47252;DHT22;32991;51.374;11.586;2023-01-25T16:28:05;-0.20;99.90
47252;DHT22;32991;51.374;11.586;2023-01-25T16:30:32;-0.30;99.90
47252;DHT22;32991;51.374;11.586;2023-01-25T16:33:00;-0.30;99.90
47252;DHT22;32991;51.374;11.586;2023-01-25T16:35:27;-0.20;99.90
47252;DHT22;32991;51.374;11.586;2023-01-25T16:37:53;-0.30;99.90
47252;DHT22;32991;51.374;11.586;2023-01-25T16:40:23;-0.20;99.90
47252;DHT22;32991;51.374;11.586;2023-01-25T16:42:50;-0.20;99.90
47252;DHT22;32991;51.374;11.586;2023-01-25T16:45:17;-0.20;99.90